»·PEaware :: RPA401 KSEA-KPSC

RPA401 :: KSEA-KPSC

FLIGHT INFORMATION

Flight Status: Arrived
Operator: Republic Airlines
More flights by this operator :: More flights under this callsign
Pilot: Andrew F. (4171)
Aircraft: EMBRAER EMB-170/175
(E170)
More flights by this aircraft type
Origin: KSEA Seattle-Tacoma Intl
United States
Destination: KPSC Tri-Cities
United States
More flights between these airports :: More routes between these airports
Route: JEFPO1 JEFPO BANDR V2 ELN V187 PSC
File this flight plan on PilotEdge
Remarks:
Altitude:
(Current/Filed)
29,000ft
Speed:
(Current/Filed)
380kts
Departed: 07-Sep-22 06:15 AM
Arrived: 07-Sep-22 06:52 AM
Distance/Time
Traveled:
149nm/0:37
Distance/Time
To Go:
Arrived

Flight Plot

Page will automatically refresh every two minutes.

Flight plan parsing failed; only flown route is shown


Map Options




Map Legend


Flown Route
Filed Route
Departure Airport
Arrival Airport
Navaid (VOR, NDB)
Fix

Horizontal Profiles

Position Reports

Time Latitude Longitude Heading Altitude Ground
Speed
07-Sep-22 05:49 47.448120 -122.303066 43 398ft 0kts
07-Sep-22 05:50 47.448120 -122.303066 43 398ft 0kts
07-Sep-22 05:51 47.448120 -122.303066 43 398ft 0kts
07-Sep-22 05:52 47.448120 -122.303066 43 398ft 0kts
07-Sep-22 05:53 47.448120 -122.303066 43 398ft 0kts
07-Sep-22 05:54 47.448120 -122.303066 43 398ft 0kts
07-Sep-22 05:55 47.448120 -122.303066 43 398ft 0kts
07-Sep-22 05:56 47.448120 -122.303066 43 398ft 0kts
07-Sep-22 05:57 47.448120 -122.303066 43 398ft 0kts
07-Sep-22 05:58 47.448120 -122.303066 43 398ft 0kts
07-Sep-22 05:59 47.448120 -122.303066 43 398ft 0kts
07-Sep-22 06:00 47.448122 -122.303063 43 398ft 0kts
07-Sep-22 06:01 47.447890 -122.303385 36 398ft 2kts
07-Sep-22 06:02 47.447323 -122.303415 326 396ft 2kts
07-Sep-22 06:03 47.447184 -122.303220 307 395ft 0kts
07-Sep-22 06:04 47.447184 -122.303220 307 395ft 0kts
07-Sep-22 06:05 47.447198 -122.303248 306 395ft 0kts
07-Sep-22 06:06 47.447758 -122.305164 274 398ft 6kts
07-Sep-22 06:07 47.449901 -122.306267 1 406ft 16kts
07-Sep-22 06:08 47.448487 -122.306271 180 400ft 27kts
07-Sep-22 06:09 47.440292 -122.306359 180 374ft 31kts
07-Sep-22 06:10 47.432696 -122.305627 190 330ft 25kts
07-Sep-22 06:11 47.431777 -122.306515 251 322ft 0kts
07-Sep-22 06:12 47.431777 -122.306515 251 322ft 0kts
07-Sep-22 06:13 47.431971 -122.307928 339 321ft 3kts
07-Sep-22 06:14 47.437770 -122.307996 0 361ft 102kts
07-Sep-22 06:15 47.477384 -122.305937 359 1897ft 177kts
07-Sep-22 06:16 47.535882 -122.306080 358 4481ft 229kts
07-Sep-22 06:17 47.596243 -122.352124 312 7258ft 266kts
07-Sep-22 06:18 47.642013 -122.438476 334 10258ft 283kts
07-Sep-22 06:19 47.727261 -122.459182 357 12240ft 339kts
07-Sep-22 06:20 47.797808 -122.381257 88 14678ft 370kts
07-Sep-22 06:21 47.754849 -122.245206 125 16958ft 375kts
07-Sep-22 06:22 47.698892 -122.112723 139 19084ft 379kts
07-Sep-22 06:23 47.622164 -122.003253 142 21006ft 388kts
07-Sep-22 06:24 47.542813 -121.891566 143 22771ft 398kts
07-Sep-22 06:25 47.461929 -121.777766 143 24386ft 407kts
07-Sep-22 06:26 47.379242 -121.661610 144 25852ft 415kts
07-Sep-22 06:27 47.294867 -121.543346 144 27192ft 423kts
07-Sep-22 06:28 47.232389 -121.392332 113 28331ft 461kts
07-Sep-22 06:29 47.194010 -121.210834 114 29082ft 473kts
07-Sep-22 06:30 47.154929 -121.026582 113 29071ft 470kts
07-Sep-22 06:31 47.113417 -120.846055 115 29069ft 466kts
07-Sep-22 06:32 47.072045 -120.665090 115 29071ft 466kts
07-Sep-22 06:33 47.030447 -120.484564 115 29073ft 467kts
07-Sep-22 06:34 46.991700 -120.302863 113 29065ft 466kts
07-Sep-22 06:35 46.953438 -120.121903 113 28861ft 472kts
07-Sep-22 06:36 46.910250 -119.933364 126 26178ft 467kts
07-Sep-22 06:37 46.830719 -119.798105 135 23806ft 429kts
07-Sep-22 06:38 46.745396 -119.684873 146 21569ft 408kts
07-Sep-22 06:39 46.659507 -119.580842 146 19399ft 396kts
07-Sep-22 06:40 46.576098 -119.480492 146 17297ft 385kts
07-Sep-22 06:41 46.494658 -119.383100 146 15243ft 374kts
07-Sep-22 06:42 46.468933 -119.244731 67 13070ft 353kts
07-Sep-22 06:43 46.500932 -119.114509 89 11201ft 342kts
07-Sep-22 06:44 46.484126 -118.987518 117 10167ft 305kts
07-Sep-22 06:45 46.438951 -118.892014 135 8348ft 263kts
07-Sep-22 06:46 46.392461 -118.913169 245 7115ft 196kts
07-Sep-22 06:47 46.368130 -118.966970 232 6281ft 149kts
07-Sep-22 06:48 46.338514 -119.011146 231 5121ft 153kts
07-Sep-22 06:49 46.309059 -119.054966 229 3536ft 151kts
07-Sep-22 06:50 46.279147 -119.100228 229 1194ft 176kts
07-Sep-22 06:51 46.255938 -119.132965 171 406ft 23kts
07-Sep-22 06:52 46.257496 -119.128272 66 404ft 15kts
07-Sep-22 06:53 46.258964 -119.123276 65 406ft 12kts
07-Sep-22 06:54 46.260410 -119.118454 66 403ft 14kts
07-Sep-22 06:55 46.260804 -119.113695 137 404ft 11kts
07-Sep-22 06:56 46.259932 -119.113114 184 403ft 5kts
07-Sep-22 06:57 46.259530 -119.113891 269 403ft 0kts
07-Sep-22 06:58 46.259530 -119.113891 269 403ft 0kts
07-Sep-22 06:59 46.259530 -119.113891 269 403ft 0kts
07-Sep-22 07:00 46.259530 -119.113891 269 403ft 0kts
07-Sep-22 07:01 46.259530 -119.113891 269 403ft 0kts
07-Sep-22 07:03 46.259530 -119.113891 269 403ft 0kts
07-Sep-22 07:04 46.259530 -119.113891 269 403ft 0kts
07-Sep-22 07:05 46.259530 -119.113891 269 403ft 0kts

Navigation Log

Ident Type
Flight plan parsing failed, navigation log unavailable